Impacts TAF Board INFO
FOR SITUATIONAL AWARENESS. NOT TO BE USED FOR FLIGHT PLANNING PURPOSES.
IDs:

KSAN - San Diego Intl Arpt, CA, US

Issued at 1120 UTC 21 Nov 2017
Updated at 1351 UTC 21 Nov 2017
Potential Impact None Slight Moderate High
Time1251Z 21/14Z 21/15Z 21/16Z 21/17Z 21/18Z 21/19Z 21/20Z 21/21Z 21/22Z 21/23Z 22/00Z 22/01Z 22/02Z>>
Type OBS PRVL PRVL PRVL PRVL PRVL PRVL PRVL PRVL PRVL PRVL PRVL PRVL PRVL
VIS 10 >6 >6 >6 >6 >6 >6 >6 >6 >6 >6 >6 >6 >6
CIG -- 200 200 200 200 200 200 200 -- -- -- -- -- --
Cover SCT BKN BKN BKN BKN BKN BKN BKN SCT SCT SCT SCT SCT SCT
FltCat VFR VFR VFR VFR VFR VFR VFR VFR VFR VFR VFR VFR VFR VFR
WX -- -- -- -- -- -- -- -- -- -- -- -- -- --
WDir 340 VRB VRB VRB VRB VRB VRB VRB 300 300 300 VRB VRB VRB
WSpd 3 4 4 4 4 4 4 4 8 8 8 4 4 4
WGst -- -- -- -- -- -- -- -- -- -- -- -- -- --

Raw TAF
KSAN 211120Z 2112/2218 VRB04KT P6SM BKN200
  FM212100 30008KT P6SM SCT200
  FM220000 VRB04KT P6SM SCT250


Raw METAR
KSAN 211251Z 34003KT 10SM SCT200 14/04 A3002 RMK AO2 SLP166 T01390039 $
KSAN 211151Z 00000KT 10SM BKN200 14/05 A3002 RMK AO2 SLP166 T01390050 10167 20139 58001 $
KSAN 211051Z 00000KT 10SM BKN200 14/06 A3003 RMK AO2 SLP167 T01390056 $

METAR Board
Radar Display
Forecast Discussion

FOR SITUATIONAL AWARENESS. NOT TO BE USED FOR FLIGHT PLANNING PURPOSES.